Time;durP1;ratioP1;P1;durP2;ratioP2;P2;SDS_P1;SDS_P2;PMS_P1;PMS_P2;Temp;Humidity;BMP_temperature;BMP_pressure;BME280_temperature;BME280_humidity;BME280_pressure;Samples;Min_cycle;Max_cycle;Signal;HPM_P1;HPM_P2
2022/03/05 00:01:21;;;;;;;15.10;9.85;;;1.00;99.90;;;0.64;70.75;101996.91;5014432;28;20179;-72
2022/03/05 00:03:50;;;;;;;14.43;10.82;;;0.90;99.90;;;0.55;71.06;101993.09;5014705;28;20187;-74
2022/03/05 00:06:21;;;;;;;10.38;9.27;;;0.80;99.90;;;0.40;71.80;101989.72;5014555;28;20224;-72
2022/03/05 00:08:50;;;;;;;12.50;9.32;;;0.70;99.90;;;0.32;71.67;101984.13;5019309;28;20665;-72
2022/03/05 00:11:19;;;;;;;14.40;10.38;;;0.60;99.90;;;0.15;72.33;101984.44;5020238;28;20198;-72
2022/03/05 00:13:47;;;;;;;12.30;9.40;;;0.50;99.90;;;0.26;72.08;101989.00;5022688;28;20209;-71
2022/03/05 00:16:16;;;;;;;11.13;8.90;;;0.50;99.90;;;0.06;72.84;101990.44;5022940;28;20221;-70
2022/03/05 00:18:45;;;;;;;17.33;9.38;;;0.40;99.90;;;0.09;73.29;101989.38;5020956;28;20250;-72
2022/03/05 00:21:15;;;;;;;16.02;9.95;;;0.40;99.90;;;0.13;72.82;101981.06;5021450;28;20174;-70
2022/03/05 00:23:45;;;;;;;13.20;9.70;;;0.30;99.90;;;0.00;72.90;101990.88;5022082;28;20190;-71
2022/03/05 00:26:14;;;;;;;12.43;9.05;;;0.30;99.90;;;-0.06;73.07;101985.97;5021010;28;20194;-71
2022/03/05 00:28:43;;;;;;;11.98;8.95;;;0.20;99.90;;;0.03;73.29;101989.78;5018200;28;20209;-71
2022/03/05 00:31:12;;;;;;;19.73;8.95;;;0.20;99.90;;;0.18;72.67;101986.06;5013611;28;20186;-70
2022/03/05 00:33:41;;;;;;;10.02;7.55;;;0.30;99.90;;;-0.04;73.33;101986.69;5013400;28;20170;-70
2022/03/05 00:36:10;;;;;;;12.32;9.40;;;0.20;99.90;;;-0.22;73.15;101985.31;5014590;28;20174;-72
2022/03/05 00:38:39;;;;;;;18.67;9.88;;;0.10;99.90;;;-0.12;73.36;101987.25;5015693;28;20439;-72
2022/03/05 00:41:10;;;;;;;18.08;10.75;;;0.10;99.90;;;-0.23;73.96;101980.97;5013541;28;20182;-71
2022/03/05 00:43:39;;;;;;;12.43;10.95;;;0.10;99.90;;;-0.17;74.00;101983.19;5013378;28;20200;-71
2022/03/05 00:46:08;;;;;;;15.15;10.60;;;0.10;99.90;;;-0.21;73.66;101985.22;5012960;28;20190;-71
2022/03/05 00:48:37;;;;;;;13.90;10.57;;;0.00;99.90;;;-0.11;73.61;101985.44;5013135;28;20751;-71
2022/03/05 00:51:06;;;;;;;17.23;11.43;;;0.10;99.90;;;-0.26;73.64;101983.84;5013395;28;20217;-71
2022/03/05 00:53:35;;;;;;;16.95;11.60;;;0.00;99.90;;;-0.35;73.95;101987.16;5014218;28;20653;-72
2022/03/05 00:56:06;;;;;;;14.90;10.40;;;-0.10;99.90;;;-0.31;74.23;101980.66;5013811;28;20241;-71
2022/03/05 00:58:36;;;;;;;15.07;10.80;;;0.00;99.90;;;-0.36;74.29;101980.97;5013048;28;20599;-71
2022/03/05 01:01:05;;;;;;;20.33;11.60;;;-0.10;99.90;;;-0.50;74.75;101981.91;5013732;28;20233;-72
2022/03/05 01:03:34;;;;;;;18.75;12.77;;;-0.20;99.90;;;-0.56;74.71;101987.66;5013403;28;20246;-71
2022/03/05 01:06:04;;;;;;;17.70;11.65;;;-0.20;99.90;;;-0.48;75.34;101974.66;5013358;28;20201;-71
2022/03/05 01:08:34;;;;;;;17.63;11.25;;;-0.20;99.90;;;-0.55;75.11;101976.06;5013744;28;20321;-72
2022/03/05 01:11:04;;;;;;;17.88;12.18;;;-0.30;99.90;;;-0.50;75.35;101987.22;5014139;28;20617;-70
2022/03/05 01:13:32;;;;;;;22.50;12.32;;;-0.30;99.90;;;-0.54;74.98;101985.75;5014175;28;20182;-72
2022/03/05 01:16:03;;;;;;;21.92;12.27;;;-0.30;99.90;;;-0.59;75.00;101987.00;5016925;28;20318;-73
2022/03/05 01:18:33;;;;;;;14.63;11.98;;;-0.30;99.90;;;-0.63;75.85;101990.84;5015920;28;20174;-73
2022/03/05 01:21:02;;;;;;;16.83;11.90;;;-0.40;99.90;;;-0.59;75.65;101995.84;5016822;28;20214;-71
2022/03/05 01:23:31;;;;;;;20.15;12.15;;;-0.40;99.90;;;-0.44;75.47;101992.13;5014862;28;20174;-72
2022/03/05 01:26:00;;;;;;;21.08;12.90;;;-0.30;99.90;;;-0.45;75.13;101985.13;5013655;28;20241;-72
2022/03/05 01:28:29;;;;;;;14.13;11.25;;;-0.30;99.90;;;-0.48;74.83;101977.31;5012710;28;20612;-73
2022/03/05 01:30:58;;;;;;;21.35;12.98;;;-0.30;99.90;;;-0.47;75.06;101984.34;5012498;28;20178;-72
2022/03/05 01:33:29;;;;;;;15.50;11.10;;;-0.20;99.90;;;-0.46;75.54;101979.88;5012377;28;20179;-71
2022/03/05 01:35:58;;;;;;;16.92;10.32;;;-0.30;99.90;;;-0.49;75.15;101980.97;5012597;28;20194;-73
2022/03/05 01:38:27;;;;;;;15.88;11.02;;;-0.30;99.90;;;-0.47;75.71;101980.84;5012172;28;20365;-73
2022/03/05 01:40:56;;;;;;;20.05;12.05;;;-0.30;99.90;;;-0.61;75.74;101973.81;5012858;28;20186;-72
2022/03/05 01:43:25;;;;;;;14.73;9.75;;;-0.30;99.90;;;-0.67;76.13;101978.69;5012192;28;20189;-72
2022/03/05 01:45:54;;;;;;;17.27;12.52;;;-0.40;99.90;;;-0.64;76.28;101975.84;5012143;28;20600;-72
2022/03/05 01:48:23;;;;;;;14.55;10.43;;;-0.40;99.90;;;-0.79;76.92;101975.06;5012528;28;20626;-72
2022/03/05 01:50:53;;;;;;;18.25;10.90;;;-0.50;99.90;;;-0.73;76.86;101969.34;5012633;28;20210;-72
2022/03/05 01:53:22;;;;;;;14.45;8.80;;;-0.40;99.90;;;-0.74;77.17;101969.44;5011363;28;20200;-71
2022/03/05 01:55:51;;;;;;;22.60;10.57;;;-0.50;99.90;;;-0.77;76.95;101966.97;5011817;28;20587;-71
2022/03/05 01:58:21;;;;;;;19.73;10.45;;;-0.50;99.90;;;-0.85;77.57;101964.84;5013313;28;20189;-71
2022/03/05 02:00:50;;;;;;;12.82;9.77;;;-0.60;99.90;;;-0.88;77.69;101965.91;5013334;28;20214;-72
2022/03/05 02:03:19;;;;;;;12.75;8.73;;;-0.60;99.90;;;-0.87;77.90;101969.38;5012833;28;20178;-72
2022/03/05 02:05:48;;;;;;;13.63;10.18;;;-0.60;99.90;;;-0.90;77.58;101969.59;4995257;28;20559;-70
2022/03/05 02:08:19;;;;;;;17.33;10.82;;;-0.60;99.90;;;-0.89;78.11;101963.34;5012760;28;20190;-72
2022/03/05 02:10:48;;;;;;;16.92;11.45;;;-0.60;99.90;;;-0.84;77.42;101960.38;5012700;28;20256;-71
2022/03/05 02:13:16;;;;;;;15.77;10.45;;;-0.60;99.90;;;-0.82;77.23;101956.63;5011276;28;20688;-72
2022/03/05 02:15:45;;;;;;;19.60;10.95;;;-0.60;99.90;;;-0.76;76.99;101958.91;5011360;28;20186;-70
2022/03/05 02:18:14;;;;;;;19.45;9.77;;;-0.50;99.90;;;-0.90;77.87;101951.84;5010714;28;20202;-72
2022/03/05 02:20:45;;;;;;;11.93;9.93;;;-0.60;99.90;;;-0.88;78.07;101955.28;5011512;28;20241;-72
2022/03/05 02:23:14;;;;;;;14.73;10.30;;;-0.60;99.90;;;-0.92;78.07;101963.56;5011308;28;20257;-72
2022/03/05 02:25:53;;;;;;;12.18;9.80;;;-0.60;99.90;;;-1.05;78.05;101957.34;5011139;28;20194;-72
2022/03/05 02:28:25;;;;;;;16.23;9.98;;;-0.70;99.90;;;-1.11;78.70;101952.41;5009786;28;20268;-71
2022/03/05 02:30:55;;;;;;;14.50;9.80;;;-0.80;99.90;;;-1.04;78.50;101953.72;5011536;28;20357;-70
2022/03/05 02:33:24;;;;;;;15.35;10.57;;;-0.80;99.90;;;-1.01;79.02;101950.84;5010983;28;20557;-71
2022/03/05 02:35:54;;;;;;;15.50;10.15;;;-0.80;99.90;;;-1.06;79.29;101945.84;5011925;28;20209;-71
2022/03/05 02:38:25;;;;;;;10.27;8.80;;;-0.80;99.90;;;-1.09;78.45;101947.88;5011922;28;20636;-72
2022/03/05 02:40:54;;;;;;;12.65;9.85;;;-0.80;99.90;;;-1.07;78.93;101943.31;5011744;28;20170;-73
2022/03/05 02:43:25;;;;;;;16.52;9.25;;;-0.80;99.90;;;-1.10;79.09;101941.69;5018917;28;20212;-72
2022/03/05 02:46:07;;;;;;;16.10;9.48;;;-0.80;99.90;;;-1.12;79.12;101940.13;4931507;29;20233;-70
2022/03/05 02:48:36;;;;;;;12.85;9.10;;;-0.80;99.90;;;-1.07;79.74;101948.63;4931615;29;20177;-72
2022/03/05 02:51:07;;;;;;;12.38;9.45;;;-0.80;99.90;;;-1.01;79.01;101942.88;4931762;29;20739;-70
2022/03/05 02:53:36;;;;;;;13.20;9.43;;;-0.80;99.90;;;-1.15;79.34;101943.81;4932080;29;20220;-72
2022/03/05 02:56:06;;;;;;;13.57;8.82;;;-0.80;99.90;;;-1.22;80.11;101952.28;4931610;29;20691;-70
2022/03/05 02:58:35;;;;;;;11.80;10.48;;;-0.80;99.90;;;-1.25;80.00;101944.50;4931664;29;20197;-71
2022/03/05 03:01:04;;;;;;;11.68;9.73;;;-0.90;99.90;;;-1.25;80.04;101944.50;4931565;29;20280;-71
2022/03/05 03:03:33;;;;;;;11.25;8.18;;;-0.90;99.90;;;-1.18;80.71;101952.00;4931634;29;20192;-71
2022/03/05 03:06:02;;;;;;;11.30;9.35;;;-0.90;99.90;;;-1.25;80.13;101948.03;4932026;29;20205;-71
2022/03/05 03:08:33;;;;;;;15.02;9.75;;;-0.90;99.90;;;-1.21;80.35;101943.38;4931742;29;20177;-72
2022/03/05 03:11:03;;;;;;;14.32;9.70;;;-0.90;99.90;;;-1.12;80.21;101945.44;4931711;29;20225;-71
2022/03/05 03:13:32;;;;;;;12.48;9.98;;;-0.90;99.90;;;-1.28;80.52;101950.03;4931160;29;20192;-71
2022/03/05 03:16:01;;;;;;;16.85;9.18;;;-1.00;99.90;;;-1.37;80.30;101948.84;4918758;28;20192;-71
2022/03/05 03:18:30;;;;;;;13.98;9.68;;;-1.00;99.90;;;-1.19;80.69;101952.94;5010948;28;20194;-70
2022/03/05 03:20:59;;;;;;;11.60;10.40;;;-0.90;99.90;;;-1.25;80.06;101936.53;5010692;28;20298;-72
2022/03/05 03:23:28;;;;;;;15.27;8.95;;;-1.00;99.90;;;-1.46;80.38;101944.13;5010847;28;20175;-72
2022/03/05 03:25:59;;;;;;;13.70;10.73;;;-1.00;99.90;;;-1.44;80.69;101945.72;5010676;28;20703;-72
2022/03/05 03:28:28;;;;;;;14.80;11.18;;;-1.10;99.90;;;-1.42;81.21;101949.13;5010553;28;20181;-71
2022/03/05 03:30:57;;;;;;;14.20;9.50;;;-1.10;99.90;;;-1.38;80.94;101944.47;5013866;28;20198;-71
2022/03/05 03:33:26;;;;;;;16.67;9.65;;;-1.10;99.90;;;-1.34;81.05;101948.63;5014357;28;20190;-71
2022/03/05 03:35:55;;;;;;;14.57;9.77;;;-1.10;99.90;;;-1.27;80.91;101954.41;5014501;28;20217;-71
2022/03/05 03:38:24;;;;;;;16.33;10.10;;;-1.00;99.90;;;-1.18;81.37;101957.31;5014418;28;20189;-72
2022/03/05 03:40:53;;;;;;;14.93;10.68;;;-1.00;99.90;;;-1.18;80.67;101951.13;5014149;28;20237;-70
2022/03/05 03:43:24;;;;;;;12.85;10.90;;;-0.90;99.90;;;-1.09;81.25;101956.69;5014134;28;20226;-71
2022/03/05 03:45:53;;;;;;;18.73;11.30;;;-0.90;99.90;;;-1.18;80.73;101951.13;5014738;28;20202;-72
2022/03/05 03:48:22;;;;;;;13.15;10.57;;;-0.90;99.90;;;-1.33;81.06;101953.00;5014636;28;20178;-71
2022/03/05 03:50:51;;;;;;;13.60;9.50;;;-1.00;99.90;;;-1.44;81.43;101956.34;5014619;28;20222;-71
2022/03/05 03:53:20;;;;;;;16.65;11.43;;;-1.10;99.90;;;-1.45;81.48;101964.38;5014927;28;20178;-72
2022/03/05 03:55:49;;;;;;;15.65;10.88;;;-1.10;99.90;;;-1.50;81.65;101959.38;5014589;28;20171;-72
2022/03/05 03:58:19;;;;;;;14.98;9.52;;;-1.20;99.90;;;-1.51;81.77;101957.69;5014398;28;20167;-71
2022/03/05 04:00:50;;;;;;;11.68;9.85;;;-1.20;99.90;;;-1.42;82.35;101959.75;5013692;28;20206;-71
2022/03/05 04:03:19;;;;;;;14.27;10.90;;;-1.20;99.90;;;-1.48;81.87;101964.59;5014164;28;20181;-71
2022/03/05 04:05:48;;;;;;;17.48;12.20;;;-1.20;99.90;;;-1.49;82.06;101968.19;5014084;28;20174;-70
2022/03/05 04:11:04;;;;;;;24.98;11.40;;;-1.10;99.90;;;-1.50;81.94;101966.53;5013870;28;20198;-71
2022/03/05 04:13:33;;;;;;;15.35;10.00;;;-1.20;99.90;;;-1.58;82.19;101968.78;5014556;28;20602;-71
2022/03/05 04:16:03;;;;;;;17.75;11.15;;;-1.20;99.90;;;-1.65;83.01;101967.50;5014716;28;20194;-71
2022/03/05 04:18:33;;;;;;;19.75;12.07;;;-1.30;99.90;;;-1.45;82.29;101965.25;5015312;28;20185;-71
2022/03/05 04:21:04;;;;;;;17.10;11.57;;;-1.30;99.90;;;-1.57;82.78;101976.66;5015060;28;20193;-72
2022/03/05 04:23:33;;;;;;;16.17;11.95;;;-1.30;99.90;;;-1.56;82.36;101966.91;5015065;28;20181;-71
2022/03/05 04:26:03;;;;;;;17.38;10.20;;;-1.30;99.90;;;-1.53;82.67;101978.16;5015243;28;20197;-71
2022/03/05 04:28:31;;;;;;;14.82;11.48;;;-1.30;99.90;;;-1.62;82.38;101975.25;5026877;28;20186;-71
2022/03/05 04:31:02;;;;;;;18.13;12.40;;;-1.30;99.90;;;-1.69;82.49;101974.78;5030210;28;20225;-72
2022/03/05 04:33:32;;;;;;;20.65;13.35;;;-1.30;99.90;;;-1.67;82.78;101975.53;5030028;28;20189;-71
2022/03/05 04:36:01;;;;;;;19.90;11.45;;;-1.40;99.90;;;-1.63;82.46;101971.75;5016674;28;20191;-72
2022/03/05 04:38:30;;;;;;;16.23;11.60;;;-1.40;99.90;;;-1.67;82.59;101972.88;5013949;28;20174;-72
2022/03/05 04:40:59;;;;;;;27.55;12.02;;;-1.40;99.90;;;-1.73;82.87;101973.28;5013216;28;20221;-71
2022/03/05 04:43:29;;;;;;;17.25;11.48;;;-1.40;99.90;;;-1.80;83.26;101975.47;5013367;28;20272;-71
2022/03/05 04:45:59;;;;;;;23.15;13.85;;;-1.50;99.90;;;-1.76;83.18;101982.28;5013444;28;20190;-71
2022/03/05 04:48:29;;;;;;;21.48;12.75;;;-1.50;99.90;;;-1.64;83.29;101983.31;5026994;28;20175;-70
2022/03/05 04:50:58;;;;;;;20.02;12.27;;;-1.40;99.90;;;-1.68;83.27;101983.59;5029063;28;20209;-70
2022/03/05 04:53:27;;;;;;;19.52;12.80;;;-1.40;99.90;;;-1.78;83.50;101984.19;5030046;28;20213;-71
2022/03/05 04:55:58;;;;;;;20.25;13.07;;;-1.50;99.90;;;-1.83;82.88;101985.41;5030050;28;20188;-73
2022/03/05 04:58:27;;;;;;;18.58;12.45;;;-1.50;99.90;;;-1.79;82.33;101981.63;5015517;28;20669;-74
2022/03/05 05:00:56;;;;;;;25.25;13.20;;;-1.50;99.90;;;-1.84;83.22;101986.38;5013523;28;20192;-71
2022/03/05 05:03:25;;;;;;;18.35;11.20;;;-1.50;99.90;;;-1.85;82.88;101988.19;5012691;28;20607;-72
2022/03/05 05:05:56;;;;;;;26.67;11.45;;;-1.60;99.90;;;-1.83;83.24;101985.41;5014025;28;20190;-73
2022/03/05 05:08:26;;;;;;;20.77;11.80;;;-1.50;99.90;;;-1.88;83.17;101982.19;5014420;28;20183;-71
2022/03/05 05:10:54;;;;;;;16.23;11.90;;;-1.60;99.90;;;-1.82;83.33;101987.13;5014096;28;20233;-73
2022/03/05 05:13:23;;;;;;;19.52;13.68;;;-1.50;99.90;;;-1.83;83.48;101988.91;5013858;28;20186;-72
2022/03/05 05:15:52;;;;;;;17.80;11.52;;;-1.50;99.90;;;-1.97;83.49;101996.03;5014401;28;20557;-72
2022/03/05 05:18:22;;;;;;;20.85;12.23;;;-1.60;99.90;;;-1.98;83.47;101992.53;5013367;28;20197;-72
2022/03/05 05:20:51;;;;;;;17.15;12.55;;;-1.60;99.90;;;-2.00;84.19;101989.13;5013274;28;20245;-72
2022/03/05 05:23:21;;;;;;;25.77;14.43;;;-1.70;99.90;;;-2.03;83.49;101986.66;5013199;28;20232;-72
2022/03/05 05:25:51;;;;;;;18.17;11.68;;;-1.70;99.90;;;-2.04;83.54;101992.94;5013180;28;20182;-72
2022/03/05 05:28:20;;;;;;;21.55;12.02;;;-1.70;99.90;;;-2.01;84.20;101994.53;5013040;28;20202;-72
2022/03/05 05:30:49;;;;;;;18.05;12.45;;;-1.70;99.90;;;-2.04;83.72;101992.94;5012870;28;20241;-72
2022/03/05 05:33:20;;;;;;;30.13;14.77;;;-1.70;99.90;;;-2.06;83.49;101999.25;4995309;28;20214;-72
2022/03/05 05:35:49;;;;;;;21.73;13.75;;;-1.70;99.90;;;-1.82;83.50;101995.09;5012680;28;20178;-72
2022/03/05 05:38:17;;;;;;;27.20;14.00;;;-1.60;99.90;;;-1.99;83.62;101998.81;5012762;28;20182;-71
2022/03/05 05:40:48;;;;;;;21.02;14.65;;;-1.70;99.90;;;-1.99;83.58;102001.44;4995034;28;20681;-71
2022/03/05 05:43:17;;;;;;;19.88;12.35;;;-1.70;99.90;;;-2.03;84.09;102002.56;5012938;28;20194;-71
2022/03/05 05:45:46;;;;;;;25.20;12.50;;;-1.70;99.90;;;-1.96;83.49;102008.34;5013118;28;20660;-70
2022/03/05 05:48:15;;;;;;;29.13;14.95;;;-1.70;99.90;;;-2.05;84.29;102007.13;5012780;28;20193;-73
2022/03/05 05:50:45;;;;;;;19.20;14.15;;;-1.70;99.90;;;-2.08;83.50;102003.81;5012814;28;20214;-71
2022/03/05 05:53:14;;;;;;;34.55;15.43;;;-1.80;99.90;;;-2.07;83.90;102002.84;5011655;28;20182;-72
2022/03/05 05:55:43;;;;;;;21.13;13.05;;;-1.80;99.90;;;-2.07;83.79;102003.69;5013073;28;20213;-71
2022/03/05 05:58:18;;;;;;;21.27;15.10;;;-1.80;99.90;;;-2.11;83.91;102006.63;5012772;28;20198;-71
2022/03/05 06:00:47;;;;;;;21.50;14.05;;;-1.80;99.90;;;-1.99;84.11;102006.75;5012668;28;20206;-73
2022/03/05 06:03:17;;;;;;;23.65;13.35;;;-1.70;99.90;;;-2.08;83.71;102007.28;5012634;28;20633;-72
2022/03/05 06:05:46;;;;;;;22.58;14.07;;;-1.80;99.90;;;-2.06;83.93;102009.88;5012693;28;20649;-72
2022/03/05 06:08:17;;;;;;;22.77;14.75;;;-1.80;99.90;;;-2.01;83.82;102010.44;5013558;28;20229;-73
2022/03/05 06:10:46;;;;;;;26.95;14.95;;;-1.80;99.90;;;-2.03;83.96;102017.66;5013027;28;20202;-70
2022/03/05 06:13:17;;;;;;;22.42;14.18;;;-1.80;99.90;;;-1.93;84.03;102021.41;5013058;28;20186;-72
2022/03/05 06:15:46;;;;;;;26.63;14.90;;;-1.70;99.90;;;-1.94;84.13;102022.41;5013498;28;20576;-71
2022/03/05 06:18:15;;;;;;;24.17;14.40;;;-1.70;99.90;;;-1.85;84.20;102021.81;5013016;28;20240;-71
2022/03/05 06:20:50;;;;;;;26.67;15.73;;;-1.60;99.90;;;-1.77;84.20;102019.53;5011630;28;20198;-73
2022/03/05 06:23:19;;;;;;;18.33;13.88;;;-1.60;99.90;;;-1.72;83.90;102029.84;5012552;28;20182;-73
2022/03/05 06:25:48;;;;;;;19.38;13.30;;;-1.50;99.90;;;-1.71;83.54;102016.50;5012292;28;20182;-74
2022/03/05 06:28:19;;;;;;;18.80;14.27;;;-1.50;99.90;;;-1.61;83.97;102020.28;5012105;28;20178;-72
2022/03/05 06:30:48;;;;;;;21.77;14.25;;;-1.40;99.90;;;-1.60;83.30;102024.66;5011990;28;20465;-72
2022/03/05 06:33:18;;;;;;;22.25;14.13;;;-1.40;99.90;;;-1.52;84.05;102025.00;5011890;28;20206;-72
2022/03/05 06:35:47;;;;;;;19.55;13.63;;;-1.40;99.90;;;-1.43;82.54;102037.69;5011932;28;20181;-71
2022/03/05 06:38:17;;;;;;;20.73;14.23;;;-1.30;99.90;;;-1.44;83.57;102043.09;5011978;28;20189;-71
2022/03/05 06:44:01;;;;;;;25.85;14.27;;;-1.20;99.90;;;-1.39;82.27;102044.50;5011526;28;20190;-73
2022/03/05 06:46:30;;;;;;;18.48;12.75;;;-1.20;99.90;;;-1.35;82.23;102042.50;5011747;28;20166;-73
2022/03/05 06:48:59;;;;;;;22.52;15.60;;;-1.20;99.90;;;-1.37;82.61;102047.94;5011624;28;20205;-73
2022/03/05 06:51:28;;;;;;;25.13;14.75;;;-1.20;99.90;;;-1.29;82.71;102054.56;5011784;28;20204;-71
2022/03/05 06:53:58;;;;;;;24.00;13.77;;;-1.10;99.90;;;-1.25;82.27;102053.41;5010859;28;20197;-72
2022/03/05 06:56:27;;;;;;;26.08;14.38;;;-1.10;99.90;;;-1.14;82.42;102051.78;5011572;28;20178;-72
2022/03/05 06:58:57;;;;;;;24.08;14.73;;;-1.00;99.90;;;-0.97;81.92;102051.50;5012268;28;20795;-71
2022/03/05 07:01:28;;;;;;;22.42;14.38;;;-0.90;99.90;;;-0.96;81.73;102050.56;5012294;28;20170;-71
2022/03/05 07:03:57;;;;;;;26.92;14.85;;;-0.80;99.90;;;-0.68;81.09;102054.94;5014288;28;20184;-72
2022/03/05 07:06:26;;;;;;;19.45;13.68;;;-0.70;99.90;;;-0.59;80.85;102056.13;5018215;28;20185;-73
2022/03/05 07:08:55;;;;;;;23.60;15.50;;;-0.50;99.90;;;-0.54;79.96;102054.88;5016650;28;20209;-72
2022/03/05 07:11:31;;;;;;;29.98;13.18;;;-0.40;99.90;;;-0.40;79.29;102051.28;5028276;28;20215;-74
2022/03/05 07:14:01;;;;;;;20.75;13.25;;;-0.30;99.90;;;-0.27;78.78;102061.94;5037937;28;20208;-71
2022/03/05 07:16:31;;;;;;;22.75;14.85;;;-0.20;99.90;;;-0.17;78.26;102058.56;5038459;28;20241;-71
2022/03/05 07:19:00;;;;;;;17.02;13.50;;;-0.10;99.90;;;-0.07;77.68;102046.31;5041206;28;20276;-72
2022/03/05 07:21:30;;;;;;;19.70;13.93;;;0.00;99.90;;;-0.02;77.05;102040.69;5046987;28;20184;-73
2022/03/05 07:24:00;;;;;;;21.35;12.93;;;0.10;99.90;;;0.06;76.22;102053.44;5029628;28;20587;-71
2022/03/05 07:26:28;;;;;;;22.85;12.30;;;0.20;99.90;;;0.12;75.91;102053.88;5046794;28;20177;-72
2022/03/05 07:29:00;;;;;;;17.13;12.57;;;0.20;99.90;;;0.21;75.87;102053.25;5047852;28;20213;-73
2022/03/05 07:31:32;;;;;;;21.27;13.45;;;0.30;99.90;;;0.35;75.84;102054.91;5047449;28;20552;-72
2022/03/05 07:34:06;;;;;;;15.88;11.70;;;0.40;99.90;;;0.43;75.61;102058.78;5029025;28;20235;-71
2022/03/05 07:36:37;;;;;;;24.17;13.73;;;0.50;99.90;;;0.53;74.60;102058.13;5027698;28;20200;-73
2022/03/05 07:39:07;;;;;;;19.38;13.25;;;0.60;99.90;;;0.61;74.11;102056.59;5037557;28;20228;-71
2022/03/05 07:41:37;;;;;;;20.65;13.13;;;0.60;99.90;;;0.72;73.10;102063.84;5018369;28;20273;-72
2022/03/05 07:44:08;;;;;;;15.85;13.45;;;0.70;99.90;;;0.72;73.38;102061.16;5034741;28;20199;-72
2022/03/05 07:46:38;;;;;;;20.15;13.10;;;0.80;99.90;;;0.74;73.69;102067.22;5035132;28;20240;-73
2022/03/05 07:49:08;;;;;;;18.25;12.00;;;0.80;99.90;;;0.87;73.10;102066.22;5034608;28;20209;-72
2022/03/05 07:51:37;;;;;;;14.90;11.43;;;0.90;99.90;;;0.88;72.88;102065.25;5035105;28;20301;-75
2022/03/05 07:54:07;;;;;;;18.90;11.65;;;1.00;99.90;;;1.00;72.49;102068.84;5034602;28;20193;-73
2022/03/05 07:56:37;;;;;;;13.65;10.38;;;1.10;99.90;;;1.15;72.06;102066.88;5016682;28;20648;-72
2022/03/05 07:59:06;;;;;;;17.63;13.07;;;1.10;99.90;;;1.33;71.81;102078.00;5034067;28;20699;-72
2022/03/05 08:01:35;;;;;;;19.90;12.15;;;1.30;99.90;;;1.40;70.69;102080.13;5033966;28;20220;-72
2022/03/05 08:04:07;;;;;;;14.15;11.38;;;1.40;99.90;;;1.30;70.06;102068.41;5034215;28;20181;-73
2022/03/05 08:06:37;;;;;;;21.25;11.27;;;1.40;99.90;;;1.36;70.75;102069.75;5035427;28;20170;-72
2022/03/05 08:09:07;;;;;;;18.23;12.30;;;1.50;99.90;;;1.43;70.58;102066.53;5034756;28;20300;-71
2022/03/05 08:11:36;;;;;;;16.42;11.35;;;1.50;99.90;;;1.59;70.28;102068.91;5034519;28;20550;-71
2022/03/05 08:14:05;;;;;;;15.18;11.15;;;1.60;99.90;;;1.77;69.65;102070.19;5035861;28;20194;-72
2022/03/05 08:16:34;;;;;;;15.95;11.23;;;1.70;99.90;;;1.73;69.41;102069.56;5034392;28;20196;-72
2022/03/05 08:19:03;;;;;;;15.93;11.10;;;1.80;99.90;;;1.81;69.33;102063.63;5035064;28;20271;-71
2022/03/05 08:21:34;;;;;;;15.20;12.38;;;1.80;99.90;;;2.00;69.26;102074.59;5034919;28;20276;-73
2022/03/05 08:24:03;;;;;;;15.32;11.15;;;1.90;99.90;;;2.07;68.09;102065.16;5034107;28;20181;-73
2022/03/05 08:26:32;;;;;;;21.45;12.00;;;2.00;97.30;;;2.03;68.31;102062.84;5034148;28;20629;-73
2022/03/05 08:29:01;;;;;;;13.68;10.30;;;2.00;96.40;;;2.22;67.63;102071.13;5033890;28;20201;-74
2022/03/05 08:31:31;;;;;;;12.88;11.02;;;2.20;95.90;;;2.42;66.86;102078.41;5035058;28;20181;-72
2022/03/05 08:34:01;;;;;;;15.25;10.50;;;2.30;93.00;;;2.49;66.22;102076.09;5034935;28;20205;-72
2022/03/05 08:36:32;;;;;;;17.58;13.02;;;2.40;90.10;;;2.59;65.97;102077.09;5035744;28;20264;-71
2022/03/05 08:39:28;;;;;;;14.65;10.77;;;2.50;88.20;;;2.48;66.04;102072.59;5034739;28;20213;-71
2022/03/05 08:41:57;;;;;;;18.60;12.63;;;2.50;80.30;;;2.49;66.26;102073.44;5035122;28;20193;-71
2022/03/05 08:44:26;;;;;;;17.40;11.57;;;2.50;81.20;;;2.47;66.04;102075.41;5035093;28;20212;-72
2022/03/05 08:46:56;;;;;;;16.80;11.63;;;2.50;80.30;;;2.61;65.64;102075.16;5034698;28;20170;-70
2022/03/05 08:49:25;;;;;;;15.32;13.15;;;2.60;79.00;;;2.65;65.45;102073.94;5034428;28;20231;-70
2022/03/05 08:51:55;;;;;;;15.35;11.32;;;2.60;74.00;;;2.78;65.12;102068.44;5033985;28;20209;-71
2022/03/05 08:54:25;;;;;;;15.38;11.80;;;2.80;70.30;;;2.89;64.65;102066.63;5034963;28;20177;-71
2022/03/05 08:56:54;;;;;;;20.98;12.20;;;2.80;69.00;;;3.02;64.85;102074.47;5034835;28;20170;-71
2022/03/05 08:59:23;;;;;;;18.75;12.38;;;2.90;70.40;;;3.18;63.94;102072.25;5016514;28;20225;-70
2022/03/05 09:01:52;;;;;;;14.82;11.30;;;3.10;63.80;;;3.25;63.58;102075.25;5034619;28;20229;-72
2022/03/05 09:04:22;;;;;;;15.55;10.63;;;3.20;60.20;;;3.23;63.78;102069.22;5035211;28;20196;-71
2022/03/05 09:06:51;;;;;;;14.00;11.88;;;3.20;57.20;;;3.22;63.14;102068.34;5034346;28;20235;-71
2022/03/05 09:09:21;;;;;;;15.95;10.50;;;3.30;54.20;;;3.22;62.99;102075.53;5034122;28;20205;-70
2022/03/05 09:11:52;;;;;;;13.18;10.95;;;3.20;53.40;;;3.14;63.37;102076.16;5034577;28;20170;-72
2022/03/05 09:14:21;;;;;;;19.77;13.73;;;3.20;53.10;;;3.34;63.26;102069.19;5034584;28;20648;-72
2022/03/05 09:16:51;;;;;;;17.48;10.77;;;3.20;54.50;;;3.53;61.98;102072.03;5016699;28;20200;-70
2022/03/05 09:19:20;;;;;;;18.35;14.20;;;3.50;51.00;;;3.48;62.82;102074.25;5034254;28;20213;-70
2022/03/05 09:21:49;;;;;;;16.70;12.23;;;3.50;50.00;;;3.68;61.95;102070.72;5034241;28;20186;-70
2022/03/05 09:24:18;;;;;;;18.48;11.77;;;3.60;49.30;;;3.71;62.04;102065.13;5033199;28;20609;-72
2022/03/05 09:26:48;;;;;;;18.02;11.40;;;3.70;47.90;;;3.83;61.52;102065.91;5033537;28;20173;-71
2022/03/05 09:29:17;;;;;;;13.98;12.25;;;3.80;45.70;;;3.73;61.37;102057.78;5034061;28;20549;-69
2022/03/05 09:31:46;;;;;;;17.42;11.30;;;3.80;42.90;;;3.54;61.86;102057.66;5034185;28;20579;-72
2022/03/05 09:34:15;;;;;;;14.02;12.25;;;3.70;42.80;;;3.76;62.23;102056.69;5033908;28;20232;-71
2022/03/05 09:36:44;;;;;;;13.95;10.48;;;3.70;45.00;;;3.83;61.61;102057.84;5033994;28;20540;-70
2022/03/05 09:39:13;;;;;;;14.88;10.90;;;3.70;43.70;;;4.03;61.32;102059.69;5033674;28;20209;-71
2022/03/05 09:41:48;;;;;;;17.15;11.18;;;3.90;43.60;;;4.04;61.20;102057.88;5033712;28;20201;-71
2022/03/05 09:44:17;;;;;;;13.23;10.30;;;4.00;41.60;;;4.03;61.06;102059.69;5033346;28;20196;-74
2022/03/05 09:46:47;;;;;;;16.38;11.48;;;4.00;40.70;;;4.27;60.72;102062.09;5033321;28;20181;-71
2022/03/05 09:49:16;;;;;;;14.68;9.13;;;4.10;41.10;;;4.45;59.72;102063.19;5033135;28;20213;-72
2022/03/05 09:51:45;;;;;;;13.82;10.73;;;4.30;38.70;;;4.38;59.87;102064.69;5032845;28;20185;-71
2022/03/05 09:54:14;;;;;;;13.85;10.90;;;4.30;37.20;;;4.21;60.09;102062.63;5033245;28;20197;-71
2022/03/05 09:56:43;;;;;;;11.25;10.13;;;4.30;35.80;;;4.12;60.44;102055.38;5033681;28;20197;-69
2022/03/05 09:59:14;;;;;;;11.55;10.05;;;4.10;36.40;;;4.20;60.11;102060.94;5033488;28;20209;-70
2022/03/05 10:01:43;;;;;;;11.02;9.93;;;4.20;36.20;;;4.39;60.08;102061.03;5033103;28;20174;-70
2022/03/05 10:04:21;;;;;;;14.57;10.63;;;4.30;36.50;;;4.58;59.73;102071.84;5033557;28;20212;-70
2022/03/05 10:07:13;;;;;;;15.38;10.82;;;4.40;35.80;;;4.61;59.00;102068.03;5033482;28;20184;-73
2022/03/05 10:09:45;;;;;;;15.88;10.32;;;4.60;33.30;;;4.54;58.80;102062.38;5033289;28;20661;-70
2022/03/05 10:12:34;;;;;;;11.77;10.50;;;4.60;32.00;;;4.61;58.92;102060.84;5033044;28;20208;-72
2022/03/05 10:15:09;;;;;;;14.85;11.45;;;4.60;31.80;;;4.54;58.79;102059.69;5034071;28;20801;-72
2022/03/05 10:17:55;;;;;;;13.60;10.52;;;4.50;31.00;;;4.71;58.46;102056.38;5033717;28;20252;-71
2022/03/05 10:20:27;;;;;;;23.58;19.58;;;4.60;31.00;;;4.78;58.23;102062.03;5033367;28;20297;-70
2022/03/05 10:23:04;;;;;;;11.45;9.30;;;4.70;29.70;;;4.99;57.73;102056.56;5033184;28;20182;-70